createdAt,value
2022-11-01T00:00:11.810Z,11.57
2022-11-01T00:02:43.635Z,17.65
2022-11-01T00:05:13.105Z,17.82
2022-11-01T00:07:42.538Z,8.75
2022-11-01T00:10:12.088Z,9.65
2022-11-01T00:12:41.557Z,8.57
2022-11-01T00:15:10.977Z,10.63
2022-11-01T00:17:40.441Z,7.80
2022-11-01T00:20:11.747Z,8.68
2022-11-01T00:22:41.313Z,10.58
2022-11-01T00:25:11.733Z,9.23
2022-11-01T00:27:41.221Z,9.00
2022-11-01T00:30:10.987Z,9.08
2022-11-01T00:32:41.338Z,9.63
2022-11-01T00:35:10.813Z,8.60
2022-11-01T00:37:40.259Z,5.97
2022-11-01T00:40:11.081Z,6.35
2022-11-01T00:42:40.976Z,8.73
2022-11-01T00:45:10.746Z,6.62
2022-11-01T00:47:40.212Z,7.78
2022-11-01T00:50:10.830Z,9.78
2022-11-01T00:52:40.350Z,7.53
2022-11-01T00:55:10.772Z,8.43
2022-11-01T00:57:40.231Z,9.25
2022-11-01T01:00:11.965Z,9.73
2022-11-01T01:02:41.842Z,10.60
2022-11-01T01:05:12.217Z,8.23
2022-11-01T01:07:41.710Z,8.43
2022-11-01T01:10:11.242Z,5.40
2022-11-01T01:12:40.745Z,9.43
2022-11-01T01:15:10.846Z,8.73
2022-11-01T01:17:40.370Z,16.23
2022-11-01T01:20:11.474Z,6.45
2022-11-01T01:22:42.147Z,7.12
2022-11-01T01:25:13.131Z,7.72
2022-11-01T01:27:42.621Z,7.33
2022-11-01T01:30:12.502Z,6.58
2022-11-01T01:32:44.389Z,8.85
2022-11-01T01:35:13.890Z,4.83
2022-11-01T01:37:43.320Z,8.68
2022-11-01T01:40:13.038Z,7.83
2022-11-01T01:42:44.142Z,8.17
2022-11-01T01:45:19.499Z,6.58
2022-11-01T01:47:52.012Z,7.33
2022-11-01T01:50:37.159Z,6.20
2022-11-01T01:53:15.665Z,16.35
2022-11-01T01:55:48.187Z,7.97
2022-11-01T02:00:48.047Z,7.97
2022-11-01T02:03:18.506Z,6.17
2022-11-01T02:05:51.045Z,6.17
2022-11-01T02:10:52.497Z,8.10
2022-11-01T02:13:21.989Z,10.88
2022-11-01T02:16:16.959Z,8.80
2022-11-01T02:18:49.465Z,8.93
2022-11-01T02:21:39.942Z,10.00
2022-11-01T02:24:12.431Z,8.45
2022-11-01T02:27:01.622Z,7.22
2022-11-01T02:29:46.033Z,6.78
2022-11-01T02:32:27.408Z,10.25
2022-11-01T02:35:12.010Z,11.35
2022-11-01T02:37:47.406Z,4.95
2022-11-01T02:40:19.897Z,7.80
2022-11-01T02:42:52.766Z,8.80
2022-11-01T02:45:30.599Z,8.43
2022-11-01T02:48:02.123Z,9.43
2022-11-01T02:50:55.552Z,8.73
2022-11-01T02:53:25.556Z,8.60
2022-11-01T02:55:55.509Z,6.85
2022-11-01T02:58:28.379Z,7.25
2022-11-01T03:00:57.916Z,6.70
2022-11-01T03:03:37.743Z,6.05
2022-11-01T03:06:10.297Z,8.25
2022-11-01T03:08:48.300Z,11.45
2022-11-01T03:11:26.907Z,8.13
2022-11-01T03:14:17.641Z,10.93
2022-11-01T03:16:59.088Z,6.00
2022-11-01T03:19:40.215Z,6.80
2022-11-01T03:22:27.115Z,5.10
2022-11-01T03:25:44.695Z,11.20
2022-11-01T03:28:22.301Z,8.85
2022-11-01T03:31:09.847Z,6.87
2022-11-01T03:33:43.259Z,10.23
2022-11-01T03:36:15.809Z,7.17
2022-11-01T03:38:57.470Z,3.05
2022-11-01T03:41:30.150Z,8.30
2022-11-01T03:44:01.619Z,7.25
2022-11-01T03:46:32.258Z,8.18
2022-11-01T03:49:01.686Z,5.70
2022-11-01T03:51:31.112Z,11.08
2022-11-01T03:54:01.115Z,8.83
2022-11-01T03:56:30.529Z,6.55
2022-11-01T03:58:59.979Z,10.25
2022-11-01T04:01:29.628Z,3.90
2022-11-01T04:04:00.234Z,5.37
2022-11-01T04:06:29.873Z,7.15
2022-11-01T04:08:59.429Z,11.12
2022-11-01T04:11:28.862Z,7.97
2022-11-01T04:14:00.040Z,10.70
2022-11-01T04:19:35.234Z,6.22
2022-11-01T04:22:04.736Z,6.72
2022-11-01T04:24:34.158Z,8.38
2022-11-01T04:27:03.667Z,9.38
2022-11-01T04:29:33.113Z,6.92
2022-11-01T04:32:03.211Z,9.57
2022-11-01T04:34:44.854Z,7.30
2022-11-01T04:37:14.359Z,8.08
2022-11-01T04:39:43.849Z,7.90
2022-11-01T04:42:13.331Z,7.35
2022-11-01T04:44:42.748Z,9.08
2022-11-01T04:47:12.196Z,8.43
2022-11-01T04:49:41.683Z,7.47
2022-11-01T04:52:11.093Z,9.20
2022-11-01T04:54:40.505Z,6.72
2022-11-01T04:57:14.934Z,7.72
2022-11-01T04:59:44.350Z,9.63
2022-11-01T05:02:13.848Z,8.50
2022-11-01T05:04:43.385Z,8.75
2022-11-01T05:07:14.171Z,8.95
2022-11-01T05:09:44.694Z,9.40
2022-11-01T05:12:14.122Z,10.40
2022-11-01T05:14:43.582Z,10.83
2022-11-01T05:17:13.055Z,9.73
2022-11-01T05:19:42.540Z,7.97
2022-11-01T05:22:12.065Z,7.72
2022-11-01T05:27:12.117Z,11.33
2022-11-01T05:29:41.671Z,8.07
2022-11-01T05:32:11.134Z,8.40
2022-11-01T05:34:40.569Z,8.37
2022-11-01T05:37:10.862Z,9.60
2022-11-01T05:39:40.362Z,7.70
2022-11-01T05:42:09.843Z,10.23
2022-11-01T05:44:39.392Z,10.37
2022-11-01T05:47:10.337Z,6.53
2022-11-01T05:49:39.893Z,9.58
2022-11-01T05:52:09.317Z,8.03
2022-11-01T05:54:38.815Z,7.17
2022-11-01T05:57:08.313Z,10.72
2022-11-01T05:59:37.755Z,7.70
2022-11-01T06:02:07.235Z,5.77
2022-11-01T06:04:36.779Z,7.25
2022-11-01T06:07:06.273Z,7.05
2022-11-01T06:09:36.421Z,9.05
2022-11-01T06:12:06.390Z,7.03
2022-11-01T06:14:35.828Z,7.53
2022-11-01T06:17:05.292Z,6.83
2022-11-01T06:19:34.798Z,8.43
2022-11-01T06:22:04.229Z,6.83
2022-11-01T06:24:34.599Z,10.68
2022-11-01T06:27:06.309Z,8.53
2022-11-01T06:29:35.208Z,10.05
2022-11-01T06:32:06.869Z,6.67
2022-11-01T06:34:39.577Z,7.10
2022-11-01T06:37:07.508Z,6.10
2022-11-01T06:39:36.963Z,5.25
2022-11-01T06:42:06.637Z,7.72
2022-11-01T06:44:36.071Z,6.10
2022-11-01T06:47:05.590Z,8.23
2022-11-01T06:49:35.023Z,5.78
2022-11-01T11:15:13.881Z,7.85
2022-11-01T11:17:46.271Z,11.22
2022-11-01T11:20:18.793Z,8.27
2022-11-01T11:22:48.358Z,6.95
2022-11-01T11:25:21.528Z,9.55
2022-11-01T11:27:53.988Z,6.60
2022-11-01T11:30:35.175Z,8.28
2022-11-01T11:33:05.921Z,6.75
2022-11-01T11:35:37.350Z,8.08
2022-11-01T11:38:08.459Z,8.33
2022-11-01T11:40:43.996Z,8.30
2022-11-01T11:46:08.996Z,8.48
2022-11-01T11:51:17.673Z,5.05
2022-11-01T11:56:20.344Z,7.58
2022-11-01T11:58:53.340Z,8.45
2022-11-01T12:01:27.582Z,7.43
2022-11-01T12:04:02.741Z,7.75
2022-11-01T12:06:35.267Z,7.12
2022-11-01T12:09:04.960Z,8.48
2022-11-01T12:11:47.739Z,9.83
2022-11-01T12:14:26.281Z,7.25
2022-11-01T12:16:55.963Z,5.62
2022-11-01T12:19:28.763Z,6.05
2022-11-01T12:22:01.295Z,5.83
2022-11-01T12:24:45.566Z,9.87
2022-11-01T12:27:18.219Z,5.53
2022-11-01T12:29:56.307Z,6.10
2022-11-01T12:32:28.942Z,5.57
2022-11-01T12:35:01.445Z,6.60
2022-11-01T12:37:36.683Z,6.58
2022-11-01T12:40:12.155Z,6.28
2022-11-01T12:42:55.348Z,5.30
2022-11-01T12:45:52.019Z,5.87
2022-11-01T12:48:39.058Z,7.42
2022-11-01T12:51:14.565Z,7.70
2022-11-01T12:54:00.483Z,8.67
2022-11-01T12:56:30.112Z,6.90
2022-11-01T12:58:59.636Z,7.70
2022-11-01T13:01:38.097Z,7.10
2022-11-01T13:04:31.748Z,8.93
2022-11-01T13:07:15.597Z,7.57
2022-11-01T13:10:07.475Z,7.37
2022-11-01T13:12:56.337Z,7.77
2022-11-01T13:15:37.491Z,10.70
2022-11-01T13:18:13.946Z,8.50
2022-11-01T13:20:52.345Z,9.88
2022-11-01T13:23:27.610Z,8.77
2022-11-01T13:26:00.118Z,10.00
2022-11-01T13:28:50.029Z,8.03
2022-11-01T13:31:51.294Z,7.77
2022-11-01T13:34:51.286Z,6.40
2022-11-01T13:37:38.881Z,9.05
2022-11-01T13:40:20.375Z,7.20
2022-11-01T13:43:05.297Z,7.47
2022-11-01T13:46:11.484Z,7.63
2022-11-01T13:48:47.122Z,5.03
2022-11-01T13:51:35.936Z,8.15
2022-11-01T13:54:23.462Z,6.35
2022-11-01T13:57:15.303Z,6.33
2022-11-01T13:59:56.504Z,7.92
2022-11-01T14:02:30.807Z,7.60
2022-11-01T14:05:11.515Z,7.37
2022-11-01T14:07:51.841Z,7.53
2022-11-01T14:10:30.961Z,6.60
2022-11-01T14:13:12.302Z,7.60
2022-11-01T14:16:00.034Z,8.30
2022-11-01T14:18:30.959Z,5.37
2022-11-01T14:21:03.464Z,14.25
2022-11-01T14:23:36.044Z,6.67
2022-11-01T14:26:24.863Z,8.20
2022-11-01T14:28:58.311Z,8.00
2022-11-01T14:31:31.979Z,8.63
2022-11-01T14:34:10.624Z,8.03
2022-11-01T14:36:43.257Z,6.17
2022-11-01T14:39:24.531Z,6.87
2022-11-01T14:41:56.701Z,7.42
2022-11-01T14:44:30.310Z,7.67
2022-11-01T14:47:02.893Z,6.67
2022-11-01T14:49:46.335Z,8.15
2022-11-01T14:52:18.853Z,5.57
2022-11-01T14:55:04.924Z,10.33
2022-11-01T14:57:36.990Z,5.70
2022-11-01T15:00:30.503Z,8.77
2022-11-01T15:03:03.068Z,7.03
2022-11-01T15:05:32.511Z,8.03
2022-11-01T15:08:02.348Z,6.90
2022-11-01T15:10:35.864Z,6.28
2022-11-01T15:13:06.834Z,5.80
2022-11-01T15:15:38.499Z,5.23
2022-11-01T15:18:17.194Z,6.47
2022-11-01T15:20:50.890Z,6.87
2022-11-01T15:23:23.396Z,5.33
2022-11-01T15:25:55.942Z,9.08
2022-11-01T15:28:29.400Z,6.57
2022-11-01T15:31:01.966Z,8.10
2022-11-01T15:33:33.436Z,7.50
2022-11-01T15:36:08.831Z,6.43
2022-11-01T15:38:50.220Z,5.37
2022-11-01T15:41:22.502Z,6.95
2022-11-01T15:43:54.540Z,5.20
2022-11-01T15:46:27.083Z,6.77
2022-11-01T15:48:59.576Z,5.97
2022-11-01T15:51:32.175Z,4.70
2022-11-01T15:54:04.674Z,5.28
2022-11-01T15:56:38.837Z,4.97
2022-11-01T15:59:12.708Z,6.00
2022-11-01T16:01:42.453Z,7.65
2022-11-01T16:04:15.955Z,6.33
2022-11-01T16:06:48.493Z,4.60
2022-11-01T16:09:45.474Z,6.15
2022-11-01T16:12:23.815Z,7.35
2022-11-01T16:14:56.718Z,6.37
2022-11-01T16:17:39.979Z,6.22
2022-11-01T16:20:30.842Z,5.95
2022-11-01T16:23:09.367Z,6.43
2022-11-01T16:25:40.551Z,6.78
2022-11-01T16:28:16.463Z,7.08
2022-11-01T16:30:55.519Z,5.33
2022-11-01T16:33:28.112Z,7.70
2022-11-01T16:36:00.470Z,9.55
2022-11-01T16:38:39.059Z,6.85
2022-11-01T16:41:17.574Z,5.62
2022-11-01T16:43:49.749Z,8.03
2022-11-01T16:46:22.110Z,6.15
2022-11-01T16:48:58.382Z,6.70
2022-11-01T16:51:30.586Z,8.53
2022-11-01T16:54:01.546Z,7.45
2022-11-01T16:56:36.986Z,7.80
2022-11-01T16:59:11.349Z,6.62
2022-11-01T17:01:41.000Z,8.13
2022-11-01T17:04:13.533Z,6.87
2022-11-01T17:06:42.979Z,6.87
2022-11-01T17:09:15.576Z,7.22
2022-11-01T17:11:51.075Z,9.80
2022-11-01T17:14:19.565Z,7.85
2022-11-01T17:16:52.415Z,5.75
2022-11-01T17:19:27.895Z,6.93
2022-11-01T17:22:00.450Z,7.22
2022-11-01T17:24:33.574Z,6.92
2022-11-01T17:27:06.002Z,9.53
2022-11-01T17:29:35.489Z,5.67
2022-11-01T17:32:07.152Z,6.62
2022-11-01T17:34:38.219Z,6.77
2022-11-01T17:37:07.827Z,6.37
2022-11-01T17:39:38.863Z,7.10
2022-11-01T17:42:09.818Z,7.00
2022-11-01T17:44:39.252Z,7.07
2022-11-01T17:47:12.563Z,7.33
2022-11-01T17:49:42.064Z,6.47
2022-11-01T17:52:11.569Z,5.65
2022-11-01T17:54:42.100Z,6.78
2022-11-01T17:57:13.208Z,10.30
2022-11-01T17:59:42.643Z,6.90
2022-11-01T18:02:12.317Z,9.15
2022-11-01T18:04:42.654Z,7.37
2022-11-01T18:07:13.635Z,7.33
2022-11-01T18:09:43.127Z,8.00
2022-11-01T18:12:24.344Z,8.67
2022-11-01T18:15:11.940Z,7.80
2022-11-01T18:17:54.218Z,7.47
2022-11-01T18:20:29.537Z,9.75
2022-11-01T18:23:13.548Z,7.08
2022-11-01T18:25:46.049Z,9.10
2022-11-01T18:28:18.726Z,7.63
2022-11-01T18:30:59.657Z,10.20
2022-11-01T18:33:35.114Z,8.10
2022-11-01T18:36:07.610Z,9.50
2022-11-01T18:38:45.926Z,9.43
2022-11-01T18:41:18.640Z,11.70
2022-11-01T18:43:49.642Z,10.70
2022-11-01T18:46:27.079Z,9.17
2022-11-01T18:49:02.199Z,10.53
2022-11-01T18:51:34.421Z,9.17
2022-11-01T18:54:13.552Z,10.03
2022-11-01T18:56:46.255Z,13.20
2022-11-01T18:59:24.914Z,10.63
2022-11-01T19:02:02.837Z,10.98
2022-11-01T19:04:36.485Z,10.08
2022-11-01T19:07:19.051Z,10.43
2022-11-01T19:09:54.460Z,10.65
2022-11-01T19:12:28.611Z,10.30
2022-11-01T19:15:01.138Z,9.77
2022-11-01T19:17:35.107Z,11.97
2022-11-01T19:20:28.474Z,10.10
2022-11-01T19:23:00.484Z,9.90
2022-11-01T19:25:33.284Z,14.20
2022-11-01T19:28:06.280Z,11.70
2022-11-01T19:30:36.057Z,14.57
2022-11-01T19:33:17.365Z,13.63
2022-11-01T19:35:48.157Z,12.85
2022-11-01T19:38:17.745Z,16.65
2022-11-01T19:40:53.041Z,14.40
2022-11-01T19:43:25.546Z,13.20
2022-11-01T19:45:59.629Z,16.82
2022-11-01T19:48:30.982Z,16.82
2022-11-01T19:51:01.426Z,14.60
2022-11-01T19:53:36.587Z,14.30
2022-11-01T19:56:08.478Z,17.10
2022-11-01T19:58:42.173Z,14.30
2022-11-01T20:01:29.888Z,16.07
2022-11-01T20:04:27.838Z,17.17
2022-11-01T20:07:03.735Z,16.05
2022-11-01T20:09:36.372Z,14.13
2022-11-01T20:12:06.747Z,13.10
2022-11-01T20:14:36.923Z,16.75
2022-11-01T20:17:07.137Z,17.65
2022-11-01T20:19:36.805Z,12.70
2022-11-01T20:22:07.125Z,16.15
2022-11-01T20:24:36.562Z,15.37
2022-11-01T20:27:06.002Z,12.37
2022-11-01T20:29:35.431Z,14.70
2022-11-01T20:32:05.885Z,12.58
2022-11-01T20:34:35.384Z,12.40
2022-11-01T20:39:37.283Z,10.90
2022-11-01T20:42:08.423Z,10.47
2022-11-01T20:44:38.083Z,12.93
2022-11-01T20:47:07.516Z,10.65
2022-11-01T20:49:37.085Z,10.83
2022-11-01T20:52:34.048Z,11.50
2022-11-01T20:54:37.977Z,9.63
2022-11-01T20:57:09.766Z,8.23
2022-11-01T20:59:38.656Z,9.15
2022-11-01T21:02:13.816Z,8.33
2022-11-01T21:04:43.316Z,9.00
2022-11-01T21:07:14.771Z,12.18
2022-11-01T21:09:46.641Z,9.80
2022-11-01T21:12:47.930Z,9.63
2022-11-01T21:15:26.017Z,12.10
2022-11-01T21:18:13.998Z,10.57
2022-11-01T21:20:49.339Z,11.50
2022-11-01T21:23:35.166Z,12.03
2022-11-01T21:26:19.194Z,8.78
2022-11-01T21:28:54.614Z,10.13
2022-11-01T21:31:32.661Z,9.47
2022-11-01T21:34:04.896Z,10.30
2022-11-01T21:36:36.438Z,13.40
2022-11-01T21:39:25.817Z,11.63
2022-11-01T21:42:04.241Z,10.10
2022-11-01T21:44:42.564Z,11.10
2022-11-01T21:47:17.589Z,10.82
2022-11-01T21:49:47.242Z,11.95
2022-11-01T21:52:19.116Z,13.45
2022-11-01T21:54:50.013Z,13.58
2022-11-01T21:57:19.496Z,9.13
2022-11-01T21:59:48.944Z,10.60
2022-11-01T22:02:18.606Z,11.33
2022-11-01T22:04:48.878Z,12.13
2022-11-01T22:07:18.306Z,10.95
2022-11-01T22:09:47.806Z,10.33
2022-11-01T22:12:17.225Z,9.93
2022-11-01T22:14:46.667Z,11.23
2022-11-01T22:17:16.191Z,11.30
2022-11-01T22:19:46.475Z,11.33
2022-11-01T22:22:15.939Z,9.20
2022-11-01T22:24:45.442Z,10.77
2022-11-01T22:27:15.751Z,13.23
2022-11-01T22:29:45.250Z,12.03
2022-11-01T22:32:14.700Z,10.10
2022-11-01T22:34:46.581Z,12.80
2022-11-01T22:37:16.977Z,9.65
2022-11-01T22:39:52.056Z,9.43
2022-11-01T22:42:19.054Z,10.90
2022-11-01T22:44:51.678Z,8.00
2022-11-01T22:47:24.177Z,9.33
2022-11-01T22:49:56.595Z,9.38
2022-11-01T22:52:32.394Z,9.27
2022-11-01T22:55:13.202Z,10.73
2022-11-01T22:58:00.773Z,10.37
2022-11-01T23:00:41.767Z,11.12
2022-11-01T23:03:28.893Z,10.32
2022-11-01T23:06:05.152Z,12.50
2022-11-01T23:08:36.571Z,9.30
2022-11-01T23:11:06.228Z,11.18
2022-11-01T23:13:58.041Z,12.10
2022-11-01T23:16:33.433Z,11.93
2022-11-01T23:19:05.700Z,12.23
2022-11-01T23:21:35.338Z,12.13
2022-11-01T23:24:04.923Z,10.40
2022-11-01T23:26:34.545Z,11.60
2022-11-01T23:29:04.218Z,11.50
2022-11-01T23:31:33.658Z,13.58
2022-11-01T23:34:03.358Z,10.77
2022-11-01T23:36:35.925Z,10.67
2022-11-01T23:39:09.683Z,10.50
2022-11-01T23:41:42.461Z,9.28
2022-11-01T23:44:27.285Z,9.50
2022-11-01T23:47:27.183Z,12.20
2022-11-01T23:50:02.707Z,11.48
2022-11-01T23:52:38.022Z,10.30
2022-11-01T23:55:30.247Z,8.80
2022-11-01T23:58:05.543Z,10.65
